Time;durP1;ratioP1;P1;durP2;ratioP2;P2;SDS_P1;SDS_P2;PMS_P1;PMS_P2;Temp;Humidity;BMP_temperature;BMP_pressure;BME280_temperature;BME280_humidity;BME280_pressure;Samples;Min_cycle;Max_cycle;Signal;HPM_P1;HPM_P2
2020/06/21 00:01:18;;;;;;;4.1;2.5;;;;;;;14.21;90.40137;942.8859;;;;
2020/06/21 00:03:43;;;;;;;3.2;2;;;;;;;14.16;90.43555;942.8681;;;;
2020/06/21 00:06:10;;;;;;;3;2;;;;;;;14.15;90.14844;942.9041;;;;
2020/06/21 00:08:36;;;;;;;3.5;2;;;;;;;14.06;90.40527;942.9238;;;;
2020/06/21 00:11:01;;;;;;;4.1;1.8;;;;;;;14.05;90.30957;942.9174;;;;
2020/06/21 00:13:26;;;;;;;3.3;1.7;;;;;;;14.03;90.44238;942.8613;;;;
2020/06/21 00:15:51;;;;;;;4.5;1.7;;;;;;;14.06;90.33496;942.8846;;;;
2020/06/21 00:18:16;;;;;;;3.7;1.8;;;;;;;14.04;89.99707;942.8766;;;;
2020/06/21 00:20:41;;;;;;;5.3;1.8;;;;;;;14.02;89.61328;942.8965;;;;
2020/06/21 00:23:07;;;;;;;3;2.3;;;;;;;13.91;90.0752;942.9246;;;;
2020/06/21 00:25:32;;;;;;;3.2;2.3;;;;;;;13.84;90.56836;942.9659;;;;
2020/06/21 00:27:57;;;;;;;3.6;2.2;;;;;;;13.98;90.29688;942.8552;;;;
2020/06/21 00:30:23;;;;;;;4.4;2.6;;;;;;;13.94;90.70215;942.9439;;;;
2020/06/21 00:32:54;;;;;;;4;2.9;;;;;;;13.9;91.20996;942.9189;;;;
2020/06/21 00:35:20;;;;;;;3.3;2.4;;;;;;;13.97;90.87012;942.8192;;;;
2020/06/21 00:37:45;;;;;;;4.4;2.4;;;;;;;13.91;91.38477;942.8677;;;;
2020/06/21 00:40:12;;;;;;;6.1;2.6;;;;;;;13.85;91.9043;942.9252;;;;
2020/06/21 00:42:37;;;;;;;5.4;2.6;;;;;;;13.88;92.02539;942.8869;;;;
2020/06/21 00:45:04;;;;;;;2.7;2.1;;;;;;;13.89;91.38281;942.9037;;;;
2020/06/21 00:47:29;;;;;;;2.9;1.7;;;;;;;13.83;91.32324;942.8795;;;;
2020/06/21 00:49:55;;;;;;;2.1;1.9;;;;;;;13.76;91.66504;942.9556;;;;
2020/06/21 00:52:20;;;;;;;2.5;1.9;;;;;;;13.7;92.0332;942.9058;;;;
2020/06/21 00:54:46;;;;;;;3.6;1.9;;;;;;;13.7;92.12305;942.9465;;;;
2020/06/21 00:57:11;;;;;;;2.9;1.9;;;;;;;13.72;92.08301;942.9578;;;;
2020/06/21 00:59:37;;;;;;;3;1.8;;;;;;;13.65;92.1709;942.8959;;;;
2020/06/21 01:02:02;;;;;;;7.3;2.1;;;;;;;13.68;92.06348;942.9217;;;;
2020/06/21 01:04:27;;;;;;;2.1;1.9;;;;;;;13.63;92.44141;942.9222;;;;
2020/06/21 01:06:53;;;;;;;3.6;2.2;;;;;;;13.68;92.47754;942.8961;;;;
2020/06/21 01:09:18;;;;;;;3;2.2;;;;;;;13.68;92.45508;942.9344;;;;
2020/06/21 01:11:43;;;;;;;3.7;2.6;;;;;;;13.69;92.35352;942.9001;;;;
2020/06/21 01:14:08;;;;;;;4.8;2.7;;;;;;;13.69;92.3418;942.8433;;;;
2020/06/21 01:16:36;;;;;;;3.8;2.5;;;;;;;13.62;92.80762;942.8582;;;;
2020/06/21 01:19:01;;;;;;;3;2.2;;;;;;;13.55;93.34766;942.7743;;;;
2020/06/21 01:21:26;;;;;;;3.9;2.4;;;;;;;13.55;93.69043;942.8183;;;;
2020/06/21 01:23:51;;;;;;;3;2.6;;;;;;;13.6;93.78125;942.7961;;;;
2020/06/21 01:26:17;;;;;;;4.1;2.4;;;;;;;13.61;93.87695;942.7417;;;;
2020/06/21 01:28:42;;;;;;;3.8;2.8;;;;;;;13.65;93.87109;942.6774;;;;
2020/06/21 01:31:10;;;;;;;4.4;2.7;;;;;;;13.72;93.39355;942.6986;;;;
2020/06/21 01:33:35;;;;;;;3.8;2.7;;;;;;;13.73;93.52051;942.6066;;;;
2020/06/21 01:36:00;;;;;;;3.3;2.6;;;;;;;13.74;93.43262;942.6401;;;;
2020/06/21 01:38:25;;;;;;;3.6;2.6;;;;;;;13.8;92.92676;942.6333;;;;
2020/06/21 01:40:51;;;;;;;3.4;2.3;;;;;;;13.87;92.57324;942.7178;;;;
2020/06/21 01:43:17;;;;;;;2.3;2.1;;;;;;;13.91;92.18066;942.6796;;;;
2020/06/21 01:45:45;;;;;;;3.8;2.1;;;;;;;13.83;92.31445;942.5552;;;;
2020/06/21 01:48:11;;;;;;;3.6;2.2;;;;;;;13.62;93.0166;942.6221;;;;
2020/06/21 01:50:36;;;;;;;2.5;2.2;;;;;;;13.52;93.12109;942.6412;;;;
2020/06/21 01:53:01;;;;;;;3.8;2.5;;;;;;;13.5;93.58887;942.5404;;;;
2020/06/21 01:55:27;;;;;;;2.5;2.1;;;;;;;13.55;93.55273;942.5878;;;;
2020/06/21 01:57:52;;;;;;;2.6;2.2;;;;;;;13.52;93.42969;942.5684;;;;
2020/06/21 02:00:26;;;;;;;3.7;2.4;;;;;;;13.59;93.51465;942.524;;;;
2020/06/21 02:02:51;;;;;;;3.6;2.1;;;;;;;13.6;93.15039;942.428;;;;
2020/06/21 02:05:16;;;;;;;3.9;2.2;;;;;;;13.61;93.17578;942.4913;;;;
2020/06/21 02:07:42;;;;;;;2.3;2.1;;;;;;;13.57;92.99316;942.4111;;;;
2020/06/21 02:10:07;;;;;;;6.3;2.1;;;;;;;13.51;93.01465;942.3764;;;;
2020/06/21 02:12:35;;;;;;;3.7;2.5;;;;;;;13.49;93.6543;942.4467;;;;
2020/06/21 02:15:00;;;;;;;3.5;2.5;;;;;;;13.55;93.3457;942.4102;;;;
2020/06/21 02:17:27;;;;;;;3.2;2.3;;;;;;;13.49;92.82617;942.4116;;;;
2020/06/21 02:19:52;;;;;;;3.5;2.6;;;;;;;13.45;93.01367;942.3929;;;;
2020/06/21 02:22:19;;;;;;;3.1;2.3;;;;;;;13.45;93.08301;942.4289;;;;
2020/06/21 02:24:44;;;;;;;3.2;2.4;;;;;;;13.46;93.14258;942.4345;;;;
2020/06/21 02:27:10;;;;;;;3.3;2.2;;;;;;;13.42;93.20215;942.2808;;;;
2020/06/21 02:29:35;;;;;;;2.8;2.2;;;;;;;13.39;93.19629;942.3588;;;;
2020/06/21 02:32:00;;;;;;;4.1;2;;;;;;;13.44;93.11523;942.4041;;;;
2020/06/21 02:34:25;;;;;;;2.3;1.9;;;;;;;13.5;92.6123;942.3564;;;;
2020/06/21 02:36:51;;;;;;;2.2;2;;;;;;;13.55;92.95508;942.2405;;;;
2020/06/21 02:39:16;;;;;;;3.2;2.1;;;;;;;13.67;92.83008;942.2933;;;;
2020/06/21 02:41:41;;;;;;;3.6;2.2;;;;;;;13.64;93.26172;942.2748;;;;
2020/06/21 02:44:08;;;;;;;4.7;2.6;;;;;;;13.55;93.42773;942.2798;;;;
2020/06/21 02:46:33;;;;;;;4.9;2.5;;;;;;;13.57;93.36133;942.2958;;;;
2020/06/21 02:48:58;;;;;;;4.5;2.6;;;;;;;13.55;93.11621;942.3142;;;;
2020/06/21 02:51:23;;;;;;;3.9;2.5;;;;;;;13.58;93.13477;942.2216;;;;
2020/06/21 02:53:48;;;;;;;3.8;2.3;;;;;;;13.74;92.76563;942.22;;;;
2020/06/21 02:56:13;;;;;;;2.4;2.2;;;;;;;13.71;92.58691;942.2488;;;;
2020/06/21 02:58:38;;;;;;;3.4;2.7;;;;;;;13.64;92.91699;942.21;;;;
2020/06/21 03:01:06;;;;;;;2.9;2.4;;;;;;;13.59;92.80176;942.2296;;;;
2020/06/21 03:03:31;;;;;;;2.9;2.3;;;;;;;13.64;92.62891;942.1813;;;;
2020/06/21 03:05:57;;;;;;;2.7;2.1;;;;;;;13.72;92.6123;942.1631;;;;
2020/06/21 03:08:21;;;;;;;3.3;2.3;;;;;;;13.6;92.88574;942.1848;;;;
2020/06/21 03:10:47;;;;;;;2.4;2.2;;;;;;;13.57;92.88965;942.1878;;;;
2020/06/21 03:13:12;;;;;;;4.5;2.3;;;;;;;13.67;92.76172;942.1781;;;;
2020/06/21 03:15:41;;;;;;;4.5;2.4;;;;;;;13.66;92.91113;942.1581;;;;
2020/06/21 03:18:06;;;;;;;2.9;2.1;;;;;;;13.75;92.47949;942.1577;;;;
2020/06/21 03:20:31;;;;;;;2.4;2.2;;;;;;;13.7;92.3877;942.1199;;;;
2020/06/21 03:22:56;;;;;;;4.1;2.3;;;;;;;13.67;92.6123;942.1958;;;;
2020/06/21 03:25:22;;;;;;;2.6;2.3;;;;;;;13.67;92.6123;942.2117;;;;
2020/06/21 03:27:47;;;;;;;6;2.9;;;;;;;13.66;92.50684;942.1981;;;;
2020/06/21 03:30:12;;;;;;;4.7;2.4;;;;;;;13.67;92.23242;942.2158;;;;
2020/06/21 03:32:39;;;;;;;4.1;2.3;;;;;;;13.67;92.47363;942.1862;;;;
2020/06/21 03:35:04;;;;;;;3.6;2.3;;;;;;;13.66;92.97754;942.1973;;;;
2020/06/21 03:37:30;;;;;;;2.9;2.3;;;;;;;13.72;92.87598;942.2231;;;;
2020/06/21 03:39:55;;;;;;;2.8;2.2;;;;;;;13.72;92.53125;942.2208;;;;
2020/06/21 03:42:20;;;;;;;3.6;2.4;;;;;;;13.72;92.55469;942.1727;;;;
2020/06/21 03:44:46;;;;;;;2.8;2.2;;;;;;;13.85;92.13281;942.1623;;;;
2020/06/21 03:47:11;;;;;;;3;2.3;;;;;;;13.78;92.33789;942.1978;;;;
2020/06/21 03:49:37;;;;;;;4.2;2.2;;;;;;;13.81;92.27441;942.2139;;;;
2020/06/21 03:52:02;;;;;;;2.4;2.1;;;;;;;13.83;91.93359;942.2263;;;;
2020/06/21 03:54:27;;;;;;;2.4;2.1;;;;;;;13.79;91.91406;942.2386;;;;
2020/06/21 03:56:54;;;;;;;2.9;2.3;;;;;;;13.75;92.0293;942.2688;;;;
2020/06/21 03:59:19;;;;;;;3.2;2.5;;;;;;;13.72;92.05957;942.2759;;;;
2020/06/21 04:02:33;;;;;;;4.5;3.1;;;;;;;13.65;91.97559;942.2397;;;;
2020/06/21 04:04:59;;;;;;;3.7;2.4;;;;;;;13.63;91.73047;942.2756;;;;
2020/06/21 04:07:24;;;;;;;3.6;2.5;;;;;;;13.6;91.9082;942.28;;;;
2020/06/21 04:09:50;;;;;;;2.7;2.3;;;;;;;13.71;91.83984;942.2134;;;;
2020/06/21 04:12:15;;;;;;;2.8;2.5;;;;;;;13.63;92.22461;942.2411;;;;
2020/06/21 04:14:43;;;;;;;3.6;2.4;;;;;;;13.63;92.09863;942.3372;;;;
2020/06/21 04:17:10;;;;;;;3.4;2.3;;;;;;;13.71;92.42578;942.2919;;;;
2020/06/21 04:19:35;;;;;;;4.3;2.3;;;;;;;13.73;92.42969;942.3192;;;;
2020/06/21 04:22:03;;;;;;;3;2.4;;;;;;;13.74;92.46582;942.2841;;;;
2020/06/21 04:24:28;;;;;;;3.6;2.6;;;;;;;13.76;92.2627;942.3137;;;;
2020/06/21 04:26:55;;;;;;;2.5;2.2;;;;;;;13.87;92.24023;942.3633;;;;
2020/06/21 04:29:20;;;;;;;3.7;2.2;;;;;;;13.87;92.30859;942.2864;;;;
2020/06/21 04:31:46;;;;;;;4;1.9;;;;;;;13.92;91.86035;942.2658;;;;
2020/06/21 04:34:12;;;;;;;4.8;2.2;;;;;;;13.9;92.0293;942.3394;;;;
2020/06/21 04:36:37;;;;;;;2.4;2.2;;;;;;;13.95;91.72754;942.305;;;;
2020/06/21 04:39:03;;;;;;;2.7;1.8;;;;;;;14;91.35938;942.3387;;;;
2020/06/21 04:41:28;;;;;;;2.3;2.1;;;;;;;14.06;91.14063;942.3592;;;;
2020/06/21 04:43:54;;;;;;;5.1;1.9;;;;;;;14.05;91.16211;942.3304;;;;
2020/06/21 04:46:19;;;;;;;4.1;2.1;;;;;;;14.06;91.55469;942.3184;;;;
2020/06/21 04:48:46;;;;;;;2.1;1.9;;;;;;;14.08;91.46875;942.3538;;;;
2020/06/21 04:51:11;;;;;;;2.1;1.9;;;;;;;14.18;91.40723;942.3508;;;;
2020/06/21 04:53:36;;;;;;;2.5;1.8;;;;;;;14.37;90.67676;942.3546;;;;
2020/06/21 04:56:02;;;;;;;3.4;1.7;;;;;;;14.4;90.30371;942.3883;;;;
2020/06/21 04:58:31;;;;;;;1.9;1.7;;;;;;;14.43;89.7334;942.3473;;;;
2020/06/21 05:00:56;;;;;;;2.7;2.3;;;;;;;14.43;89.89453;942.3873;;;;
2020/06/21 05:03:24;;;;;;;3.1;1.7;;;;;;;14.42;89.93945;942.447;;;;
2020/06/21 05:05:49;;;;;;;3;1.8;;;;;;;14.4;89.91016;942.478;;;;
2020/06/21 05:08:14;;;;;;;1.9;1.7;;;;;;;14.42;89.24805;942.4055;;;;
2020/06/21 05:10:40;;;;;;;2.9;1.8;;;;;;;14.47;88.94629;942.4747;;;;
2020/06/21 05:13:07;;;;;;;2.4;1.8;;;;;;;14.5;89.76953;942.5092;;;;
2020/06/21 05:15:32;;;;;;;2;1.8;;;;;;;14.57;88.81836;942.5125;;;;
2020/06/21 05:17:59;;;;;;;2.4;1.9;;;;;;;14.54;89.05078;942.502;;;;
2020/06/21 05:20:24;;;;;;;3.5;1.9;;;;;;;14.41;88.91016;942.5101;;;;
2020/06/21 05:22:50;;;;;;;2.6;1.7;;;;;;;14.36;89.25781;942.5461;;;;
2020/06/21 05:25:15;;;;;;;3.1;1.6;;;;;;;14.39;89.75684;942.5309;;;;
2020/06/21 05:27:41;;;;;;;3.6;1.7;;;;;;;14.53;89.62695;942.502;;;;
2020/06/21 05:30:06;;;;;;;2.4;1.5;;;;;;;14.55;88.22559;942.5236;;;;
2020/06/21 05:32:33;;;;;;;3.5;1.6;;;;;;;14.47;88.64648;942.4699;;;;
2020/06/21 05:34:58;;;;;;;3;1.7;;;;;;;14.6;89.0293;942.5061;;;;
2020/06/21 05:37:27;;;;;;;2.8;1.7;;;;;;;14.76;87.20605;942.4728;;;;
2020/06/21 05:39:52;;;;;;;2.5;1.5;;;;;;;14.85;86.66113;942.558;;;;
2020/06/21 05:42:19;;;;;;;2;1.4;;;;;;;15;85.73047;942.6046;;;;
2020/06/21 05:44:44;;;;;;;1.6;1.3;;;;;;;15.08;85.1582;942.5574;;;;
2020/06/21 05:47:10;;;;;;;2.3;1.3;;;;;;;14.94;84.9707;942.5989;;;;
2020/06/21 05:49:35;;;;;;;2.6;1.4;;;;;;;14.72;85.71191;942.6138;;;;
2020/06/21 05:52:01;;;;;;;2.5;1.6;;;;;;;14.83;86.90918;942.5981;;;;
2020/06/21 05:54:26;;;;;;;3.4;1.8;;;;;;;14.97;88.18262;942.6606;;;;
2020/06/21 05:57:01;;;;;;;3.5;1.5;;;;;;;15.11;86.25;942.5742;;;;
2020/06/21 05:59:26;;;;;;;2.2;1.5;;;;;;;15.2;86.47559;942.5709;;;;
2020/06/21 06:01:52;;;;;;;2.5;1.5;;;;;;;15.34;86.88281;942.668;;;;
2020/06/21 06:04:18;;;;;;;2.2;1.5;;;;;;;15.42;84.36035;942.7059;;;;
2020/06/21 06:06:43;;;;;;;3.3;1.4;;;;;;;15.54;83.68848;942.6951;;;;
2020/06/21 06:09:09;;;;;;;4.6;1.5;;;;;;;15.71;82.68164;942.6833;;;;
2020/06/21 06:11:34;;;;;;;2.4;1.4;;;;;;;15.83;81.48047;942.7112;;;;
2020/06/21 06:14:00;;;;;;;2.5;1.7;;;;;;;15.71;84.40332;942.6976;;;;
2020/06/21 06:16:25;;;;;;;2.4;1.6;;;;;;;15.75;83.34863;942.6959;;;;
2020/06/21 06:18:51;;;;;;;4.2;1.6;;;;;;;15.84;82.70508;942.757;;;;
2020/06/21 06:21:16;;;;;;;5.2;1.8;;;;;;;15.93;83.25586;942.7719;;;;
2020/06/21 06:23:43;;;;;;;2.7;1.5;;;;;;;16.01;81.77832;942.7363;;;;
2020/06/21 06:26:08;;;;;;;3.1;1.9;;;;;;;15.97;80.39551;942.7629;;;;
2020/06/21 06:28:34;;;;;;;2.2;1.6;;;;;;;15.83;80.90234;942.8212;;;;
2020/06/21 06:30:59;;;;;;;3;1.4;;;;;;;15.79;81.62207;942.8557;;;;
2020/06/21 06:33:26;;;;;;;2.2;1.3;;;;;;;15.83;80.95996;942.8454;;;;
2020/06/21 06:35:51;;;;;;;2.4;1.3;;;;;;;15.84;82.09277;942.867;;;;
2020/06/21 06:38:18;;;;;;;2.2;1.4;;;;;;;15.71;81.46875;942.8647;;;;
2020/06/21 06:40:43;;;;;;;2.3;1.5;;;;;;;15.46;81.9082;942.8759;;;;
2020/06/21 06:43:09;;;;;;;2.7;1.8;;;;;;;15.42;84.41699;942.9119;;;;
2020/06/21 06:45:34;;;;;;;3.5;1.7;;;;;;;15.5;85.21777;942.8823;;;;
2020/06/21 06:48:00;;;;;;;2.7;1.3;;;;;;;15.64;81.99805;942.9741;;;;
2020/06/21 06:50:25;;;;;;;1.7;1.4;;;;;;;15.71;81.57227;943.0212;;;;
2020/06/21 06:52:55;;;;;;;2;1.4;;;;;;;15.87;83.38281;942.9601;;;;
2020/06/21 06:55:23;;;;;;;2.6;1.1;;;;;;;16.08;80.70605;942.9612;;;;
2020/06/21 06:57:48;;;;;;;2.3;1.3;;;;;;;16.02;79.87402;942.9397;;;;
2020/06/21 07:00:14;;;;;;;3.9;1.4;;;;;;;16.22;80.46582;942.8539;;;;
2020/06/21 07:02:39;;;;;;;1.2;1.1;;;;;;;16.38;79.21094;942.9737;;;;
2020/06/21 07:05:05;;;;;;;2.6;1.2;;;;;;;16.11;78.86133;942.8558;;;;
2020/06/21 07:07:30;;;;;;;3.2;1.7;;;;;;;16.26;82.41602;942.959;;;;
2020/06/21 07:09:56;;;;;;;3.4;1.7;;;;;;;16.38;81.5;942.9705;;;;
2020/06/21 07:12:21;;;;;;;2.8;1.5;;;;;;;16.51;82.0459;942.9484;;;;
2020/06/21 07:14:47;;;;;;;3.2;1.3;;;;;;;16.93;79.08887;942.9456;;;;
2020/06/21 07:17:12;;;;;;;2.8;1.3;;;;;;;17.21;78.00293;942.9678;;;;
2020/06/21 07:19:39;;;;;;;1.7;1.3;;;;;;;17.72;77.4209;942.902;;;;
2020/06/21 07:22:04;;;;;;;3.1;1.1;;;;;;;18.27;75.2168;942.8312;;;;
2020/06/21 07:24:30;;;;;;;2.7;1.1;;;;;;;18.8;74.80566;942.82;;;;
2020/06/21 07:26:55;;;;;;;2;1.1;;;;;;;18.92;70.27539;942.825;;;;
2020/06/21 07:29:22;;;;;;;3;1.1;;;;;;;19.08;68.43945;942.8364;;;;
2020/06/21 07:31:47;;;;;;;1.5;0.9;;;;;;;19.29;66.45605;942.8672;;;;
2020/06/21 07:34:13;;;;;;;1.1;1;;;;;;;19.38;66.59863;942.8688;;;;
2020/06/21 07:36:38;;;;;;;1.5;1;;;;;;;20.01;66.83398;942.8123;;;;
2020/06/21 07:39:04;;;;;;;1.9;1;;;;;;;21.13;63.39844;942.7966;;;;
2020/06/21 07:41:30;;;;;;;1.4;0.8;;;;;;;22.15;62.00879;942.7339;;;;
2020/06/21 07:43:55;;;;;;;2.2;0.9;;;;;;;24.15;55.19922;942.6772;;;;
2020/06/21 07:46:20;;;;;;;2;0.7;;;;;;;26.79;43.85645;942.6836;;;;
2020/06/21 07:48:45;;;;;;;0.7;0.5;;;;;;;27.79;42.58789;942.6864;;;;
2020/06/21 07:51:12;;;;;;;1.2;0.7;;;;;;;28.92;40.5293;942.702;;;;
2020/06/21 07:53:37;;;;;;;1.8;0.6;;;;;;;29.66;39.16504;942.6837;;;;
2020/06/21 07:56:02;;;;;;;1.2;0.7;;;;;;;30.42;38.77832;942.7029;;;;
2020/06/21 07:58:27;;;;;;;1.1;0.7;;;;;;;31.99;32.9082;942.7061;;;;
2020/06/21 08:00:55;;;;;;;1.6;0.6;;;;;;;30.49;36.51465;942.6677;;;;
2020/06/21 08:03:20;;;;;;;0.9;0.6;;;;;;;29.37;39.11719;942.6853;;;;
2020/06/21 08:05:46;;;;;;;0.5;0.5;;;;;;;28.16;38.97559;942.6549;;;;
2020/06/21 08:08:11;;;;;;;2.1;0.7;;;;;;;27.2;42.6748;942.5499;;;;
2020/06/21 08:10:37;;;;;;;1.7;0.7;;;;;;;27.22;40.79199;942.5717;;;;
2020/06/21 08:13:02;;;;;;;0.8;0.6;;;;;;;28.28;36.95313;942.5714;;;;
2020/06/21 08:15:29;;;;;;;2.1;0.7;;;;;;;29.05;41.01758;942.5908;;;;
2020/06/21 08:17:54;;;;;;;2.6;1;;;;;;;29.8;38.13965;942.5551;;;;
2020/06/21 08:20:20;;;;;;;1.5;0.5;;;;;;;29.22;37.63867;942.6165;;;;
2020/06/21 08:22:45;;;;;;;1.6;0.7;;;;;;;28.27;38.55664;942.5278;;;;
2020/06/21 08:25:13;;;;;;;1.5;0.6;;;;;;;26.73;41.43457;942.4771;;;;
2020/06/21 08:27:38;;;;;;;1.3;0.6;;;;;;;26.41;45.31055;942.4659;;;;
2020/06/21 08:30:05;;;;;;;1.1;0.7;;;;;;;27.63;42.33594;942.4741;;;;
2020/06/21 08:32:30;;;;;;;3.2;0.8;;;;;;;28.61;37.77832;942.4856;;;;
2020/06/21 08:34:55;;;;;;;2.5;0.6;;;;;;;27.91;39.35742;942.3702;;;;
2020/06/21 08:37:20;;;;;;;2.3;0.6;;;;;;;29.87;36.83301;942.4339;;;;
2020/06/21 08:39:45;;;;;;;1;0.7;;;;;;;29.81;35.75586;942.4724;;;;
2020/06/21 08:42:11;;;;;;;2.1;0.7;;;;;;;28.48;38.23145;942.4247;;;;
2020/06/21 08:44:36;;;;;;;2.6;0.7;;;;;;;27.1;41.05273;942.4523;;;;
2020/06/21 08:47:01;;;;;;;0.9;0.7;;;;;;;25.88;41.98145;942.5285;;;;
2020/06/21 08:49:26;;;;;;;1.5;0.8;;;;;;;24.18;49.45605;942.5281;;;;
2020/06/21 08:51:52;;;;;;;1.9;1.1;;;;;;;22.97;51.64648;942.4745;;;;
2020/06/21 08:54:17;;;;;;;1.4;0.9;;;;;;;22.45;53.22949;942.5059;;;;
2020/06/21 08:56:44;;;;;;;1.5;1.1;;;;;;;22.06;54.36621;942.4639;;;;
2020/06/21 08:59:09;;;;;;;2.2;1;;;;;;;21.75;56.9873;942.5112;;;;
2020/06/21 09:01:36;;;;;;;3;1.2;;;;;;;21.62;56.36133;942.4885;;;;
2020/06/21 09:04:01;;;;;;;1.2;0.9;;;;;;;21.7;55.20117;942.5328;;;;
2020/06/21 09:06:27;;;;;;;2.7;1;;;;;;;22.21;58.32422;942.5033;;;;
2020/06/21 09:08:53;;;;;;;3.2;0.9;;;;;;;22.25;59.31348;942.4872;;;;
2020/06/21 09:11:18;;;;;;;2.1;0.9;;;;;;;21.69;54.42676;942.5168;;;;
2020/06/21 09:13:44;;;;;;;2.8;1;;;;;;;21.27;57.06543;942.5426;;;;
2020/06/21 09:16:09;;;;;;;1.2;0.8;;;;;;;20.94;58.47266;942.5636;;;;
2020/06/21 09:18:35;;;;;;;1;0.9;;;;;;;20.42;60.17969;942.5488;;;;
2020/06/21 09:21:00;;;;;;;2.9;1.2;;;;;;;20.29;63.10352;942.564;;;;
2020/06/21 09:23:26;;;;;;;2.7;1.2;;;;;;;20.13;63.43164;942.6276;;;;
2020/06/21 09:25:52;;;;;;;2.5;1.1;;;;;;;19.95;62.04102;942.6155;;;;
2020/06/21 09:28:18;;;;;;;4.5;1.1;;;;;;;19.82;65.97656;942.6509;;;;
2020/06/21 09:30:43;;;;;;;4.2;1.2;;;;;;;19.72;67.4082;942.6746;;;;
2020/06/21 09:33:08;;;;;;;1.8;1.1;;;;;;;19.61;69.88477;942.6546;;;;
2020/06/21 09:35:33;;;;;;;1.7;1.1;;;;;;;19.37;68.97363;942.7753;;;;
2020/06/21 09:37:58;;;;;;;3.3;1.4;;;;;;;19.13;71.56738;942.7693;;;;
2020/06/21 09:40:25;;;;;;;4.1;1.4;;;;;;;19.06;71.10156;942.8061;;;;
2020/06/21 09:42:50;;;;;;;1.8;1.2;;;;;;;18.91;71.96094;942.7557;;;;
2020/06/21 09:45:17;;;;;;;3.1;1.3;;;;;;;18.82;73.6123;942.832;;;;
2020/06/21 09:47:42;;;;;;;3.2;1.6;;;;;;;18.62;74.05566;942.8326;;;;
2020/06/21 09:50:07;;;;;;;3.2;1.5;;;;;;;18.61;72.65723;942.8576;;;;
2020/06/21 09:52:32;;;;;;;4.8;1.4;;;;;;;18.54;73.92383;942.8287;;;;
2020/06/21 09:54:59;;;;;;;2.8;1.4;;;;;;;18.53;75.15723;942.8144;;;;
2020/06/21 09:57:24;;;;;;;5.9;1.5;;;;;;;18.47;76.16895;942.8571;;;;
2020/06/21 09:59:50;;;;;;;5.2;1.5;;;;;;;18.27;75.82129;942.8691;;;;
2020/06/21 10:02:18;;;;;;;6.5;1.6;;;;;;;18.22;75.26758;942.8714;;;;
2020/06/21 10:04:44;;;;;;;1.9;1.4;;;;;;;18.27;75.90234;942.8538;;;;
2020/06/21 10:07:09;;;;;;;2.9;1.3;;;;;;;18.45;75.51465;942.8823;;;;
2020/06/21 10:09:35;;;;;;;2.8;1.3;;;;;;;18.56;72.5332;942.8736;;;;
2020/06/21 10:12:00;;;;;;;2.9;1.2;;;;;;;18.67;72.19238;942.8839;;;;
2020/06/21 10:14:27;;;;;;;2.1;1.3;;;;;;;18.84;71.26465;942.9366;;;;
2020/06/21 10:16:52;;;;;;;2.8;1.5;;;;;;;18.95;70.47852;942.9439;;;;
2020/06/21 10:19:18;;;;;;;2;1.3;;;;;;;18.95;71.71387;942.9188;;;;
2020/06/21 10:21:43;;;;;;;3.5;1.3;;;;;;;19.05;70.50488;942.8934;;;;
2020/06/21 10:24:11;;;;;;;2.9;1.4;;;;;;;19.11;71.85352;942.9167;;;;
2020/06/21 10:26:36;;;;;;;2.2;1.3;;;;;;;19.1;68.18457;942.9419;;;;
2020/06/21 10:29:01;;;;;;;3.4;1.2;;;;;;;19.12;70.64551;942.9682;;;;
2020/06/21 10:31:26;;;;;;;2.7;1.3;;;;;;;19.17;70.26855;942.9721;;;;
2020/06/21 10:33:52;;;;;;;6.5;1.5;;;;;;;19.21;71.80176;943.0264;;;;
2020/06/21 10:36:17;;;;;;;2.1;1.1;;;;;;;19.17;70.52539;943.0311;;;;
2020/06/21 10:38:45;;;;;;;1.6;1.1;;;;;;;19.22;69.61328;943.015;;;;
2020/06/21 10:41:10;;;;;;;2.3;1.1;;;;;;;19.18;68.54785;943.0277;;;;
2020/06/21 10:43:36;;;;;;;2.4;1.3;;;;;;;19;65.78418;942.9487;;;;
2020/06/21 10:46:01;;;;;;;3.2;1.3;;;;;;;18.98;68.17773;942.9863;;;;
2020/06/21 10:48:27;;;;;;;2.6;1.2;;;;;;;19.01;68.62598;942.9841;;;;
2020/06/21 10:50:52;;;;;;;2.4;1.2;;;;;;;19.03;71.53906;942.993;;;;
2020/06/21 10:53:19;;;;;;;4.8;1.5;;;;;;;19.05;71.62402;943.0184;;;;
2020/06/21 10:55:44;;;;;;;2;1.4;;;;;;;19.05;67.01367;943.0039;;;;
2020/06/21 10:58:10;;;;;;;3.7;1.4;;;;;;;19.02;69.96484;943.0381;;;;
2020/06/21 11:00:35;;;;;;;2.2;1.5;;;;;;;19.04;69.24707;943.0808;;;;
2020/06/21 11:03:01;;;;;;;1.4;1.3;;;;;;;19.08;71.29199;943.0689;;;;
2020/06/21 11:05:26;;;;;;;2.3;1.5;;;;;;;18.98;70.75098;943.0064;;;;
2020/06/21 11:07:52;;;;;;;2.4;1.5;;;;;;;19;69.88184;943.0044;;;;
2020/06/21 11:10:18;;;;;;;5.1;1.6;;;;;;;19.07;69.57813;943.0586;;;;
2020/06/21 11:12:46;;;;;;;3.3;1.6;;;;;;;19.09;70.23438;943.0558;;;;
2020/06/21 11:15:11;;;;;;;2.1;1.8;;;;;;;19.05;71.78711;943.0798;;;;
2020/06/21 11:17:38;;;;;;;2.3;1.4;;;;;;;18.94;69.52246;943.0754;;;;
2020/06/21 11:20:03;;;;;;;4.2;1.3;;;;;;;18.77;70.71777;943.0883;;;;
2020/06/21 11:22:29;;;;;;;1.7;1.4;;;;;;;18.65;71.74512;943.1238;;;;
2020/06/21 11:24:54;;;;;;;1.8;1.6;;;;;;;18.54;72.66992;943.1231;;;;
2020/06/21 11:27:20;;;;;;;3.9;1.7;;;;;;;18.52;74.23535;943.1428;;;;
2020/06/21 11:29:45;;;;;;;2.4;1.8;;;;;;;18.58;74.57129;943.1517;;;;
2020/06/21 11:32:12;;;;;;;4.1;2.1;;;;;;;18.61;74.77344;943.165;;;;
2020/06/21 11:34:37;;;;;;;4.5;1.8;;;;;;;18.6;74.64453;943.1644;;;;
2020/06/21 11:37:02;;;;;;;3.1;1.4;;;;;;;18.6;73.48242;943.1852;;;;
2020/06/21 11:39:27;;;;;;;2.3;1.4;;;;;;;18.61;73.34277;943.1431;;;;
2020/06/21 11:41:53;;;;;;;4.2;1.4;;;;;;;18.59;74.03809;943.2209;;;;
2020/06/21 11:44:19;;;;;;;1.7;1.3;;;;;;;18.65;72.50293;943.2053;;;;
2020/06/21 11:46:45;;;;;;;2.6;1.4;;;;;;;18.79;72.82813;943.2089;;;;
2020/06/21 11:49:10;;;;;;;4.4;1.4;;;;;;;18.91;71.625;943.1995;;;;
2020/06/21 11:51:37;;;;;;;2.8;1.2;;;;;;;18.93;70.43066;943.2097;;;;
2020/06/21 11:54:02;;;;;;;2.6;1.4;;;;;;;19.09;70.81641;943.1744;;;;
2020/06/21 11:56:27;;;;;;;2;1.2;;;;;;;19.19;68.51465;943.1438;;;;
2020/06/21 11:58:53;;;;;;;1.5;1.3;;;;;;;19.19;68.89844;943.1147;;;;
2020/06/21 12:01:20;;;;;;;1.8;1.2;;;;;;;19.48;70.20117;943.092;;;;
2020/06/21 12:03:45;;;;;;;1.7;1.2;;;;;;;19.46;68.32227;943.0892;;;;
2020/06/21 12:06:10;;;;;;;2.1;1.2;;;;;;;19.41;69.66699;943.0323;;;;
2020/06/21 12:08:35;;;;;;;1.7;1.2;;;;;;;19.58;67.79395;942.9928;;;;
2020/06/21 12:11:03;;;;;;;2.7;1.2;;;;;;;19.71;65.80664;942.9691;;;;
2020/06/21 12:13:28;;;;;;;1.2;1.1;;;;;;;19.85;64.1377;942.986;;;;
2020/06/21 12:15:55;;;;;;;1;0.9;;;;;;;19.88;62.32227;942.9274;;;;
2020/06/21 12:18:20;;;;;;;1.8;1;;;;;;;19.93;65.10645;942.9667;;;;
2020/06/21 12:20:46;;;;;;;4;1.2;;;;;;;20.19;63.30078;942.9327;;;;
2020/06/21 12:23:11;;;;;;;2.7;1.2;;;;;;;20.17;63.47168;942.8831;;;;
2020/06/21 12:25:37;;;;;;;2.1;1.1;;;;;;;20.16;62.80566;942.8558;;;;
2020/06/21 12:28:03;;;;;;;3;1;;;;;;;20.33;60.55273;942.8356;;;;
2020/06/21 12:30:29;;;;;;;1.7;1;;;;;;;20.54;61.65625;942.9063;;;;
2020/06/21 12:32:54;;;;;;;2.1;1;;;;;;;20.75;61.13574;942.9497;;;;
2020/06/21 12:35:20;;;;;;;1.8;1.1;;;;;;;20.95;62.1582;943.0353;;;;
2020/06/21 12:37:45;;;;;;;1.3;1;;;;;;;20.99;59.11133;942.9963;;;;
2020/06/21 12:40:12;;;;;;;2.1;1.1;;;;;;;20.86;58.93066;943.022;;;;
2020/06/21 12:42:37;;;;;;;2.1;1.1;;;;;;;20.98;60.59473;943.0363;;;;
2020/06/21 12:45:02;;;;;;;2.6;1.1;;;;;;;20.98;57.4375;942.9803;;;;
2020/06/21 12:47:27;;;;;;;2.9;1;;;;;;;21.14;60.18359;942.9761;;;;
2020/06/21 12:49:53;;;;;;;1.4;0.9;;;;;;;21.23;57.2832;942.9572;;;;
2020/06/21 12:52:19;;;;;;;2.5;1;;;;;;;21.48;57.29199;942.9064;;;;
2020/06/21 12:55:00;;;;;;;2.9;0.9;;;;;;;21.62;56.18457;942.8906;;;;
2020/06/21 12:57:31;;;;;;;3;1;;;;;;;21.77;56.53223;942.9414;;;;
2020/06/21 12:59:59;;;;;;;1.8;1;;;;;;;21.48;54.56348;943.0036;;;;
2020/06/21 13:02:30;;;;;;;2.3;0.9;;;;;;;21.12;56.16992;943.0137;;;;
2020/06/21 13:05:00;;;;;;;2.5;1;;;;;;;20.7;57.7168;942.9523;;;;
2020/06/21 13:07:30;;;;;;;1.4;1;;;;;;;20.66;59.46387;943.0042;;;;
2020/06/21 13:09:59;;;;;;;5.8;1;;;;;;;20.43;60.89453;942.9934;;;;
2020/06/21 13:12:29;;;;;;;3.7;1.1;;;;;;;20.28;57.30078;943.0081;;;;
2020/06/21 13:14:57;;;;;;;2.6;1;;;;;;;20.08;59.36328;942.9601;;;;
2020/06/21 13:17:27;;;;;;;1.5;1;;;;;;;19.95;64.22266;943.0189;;;;
2020/06/21 13:20:00;;;;;;;4.3;1;;;;;;;19.89;62.46484;942.9852;;;;
2020/06/21 13:22:22;;;;;;;2.7;1.1;;;;;;;19.79;66.74023;942.9749;;;;
2020/06/21 13:24:47;;;;;;;1.8;1.2;;;;;;;19.72;66.7666;942.9963;;;;
2020/06/21 13:27:14;;;;;;;3.1;1.2;;;;;;;19.73;66.61621;942.9822;;;;
2020/06/21 13:29:39;;;;;;;2;1.1;;;;;;;19.74;66.52344;942.966;;;;
2020/06/21 13:32:06;;;;;;;3.1;1.2;;;;;;;19.8;66.12402;943.0086;;;;
2020/06/21 13:34:31;;;;;;;2.7;1.5;;;;;;;19.82;64.72754;942.9864;;;;
2020/06/21 13:36:56;;;;;;;2.6;1.2;;;;;;;19.79;64.89844;942.9448;;;;
2020/06/21 13:39:22;;;;;;;2.7;1.1;;;;;;;19.71;64.72363;942.9042;;;;
2020/06/21 13:41:47;;;;;;;2.5;0.9;;;;;;;19.62;63.91895;942.8669;;;;
2020/06/21 13:44:13;;;;;;;1.9;1.1;;;;;;;19.67;65.82422;942.8647;;;;
2020/06/21 13:46:38;;;;;;;3.1;1.2;;;;;;;19.82;64.12109;942.832;;;;
2020/06/21 13:49:05;;;;;;;2.8;1.1;;;;;;;20.05;63.67676;942.8047;;;;
2020/06/21 13:51:30;;;;;;;3.4;1.2;;;;;;;20.37;64.00293;942.787;;;;
2020/06/21 13:53:57;;;;;;;2.8;1.1;;;;;;;20.68;64.35254;942.8006;;;;
2020/06/21 13:56:23;;;;;;;1.9;0.9;;;;;;;21.04;59.76172;942.7589;;;;
2020/06/21 13:58:48;;;;;;;3.2;1.1;;;;;;;21.13;59.36328;942.7285;;;;
2020/06/21 14:01:13;;;;;;;5.9;1.3;;;;;;;21.25;57.51953;942.7253;;;;
2020/06/21 14:03:38;;;;;;;2.1;1.1;;;;;;;21.17;58.70117;942.6976;;;;
2020/06/21 14:06:03;;;;;;;3;1.3;;;;;;;21.26;60.52832;942.637;;;;
2020/06/21 14:08:28;;;;;;;3.1;1.3;;;;;;;21.41;60.14941;942.6306;;;;
2020/06/21 14:10:54;;;;;;;2.7;1.2;;;;;;;21.37;55.26563;942.5489;;;;
2020/06/21 14:13:19;;;;;;;1.5;1;;;;;;;21.44;57.71973;942.5305;;;;
2020/06/21 14:15:46;;;;;;;1.5;0.9;;;;;;;21.31;56.08789;942.5417;;;;
2020/06/21 14:18:11;;;;;;;2.3;1;;;;;;;21.4;55.26758;942.3975;;;;